Archival Weather

Chicago O'Hare International

Chicago, Illinois (KORD)

Report from: Saturday, March 18, 2023 1:01 PM CDT
Current time: Tuesday, February 27, 2024 4:10 AM CST

Current weather – Weather history – Daily summaries
Weather forecast

Present weatherLight snow, blowing snow
Temperature-6.7°C (19.9°F)
Wind chill-14.1°C (6.7°F)
Dew point-12.8°C (9.0°F)
Winds 12 kts (6.2 m/s, 13.8 mph) West (280°)
Wind gusts 23 kts (11.8 m/s, 26.5 mph)
Visibility3960 ft. (1.2 km)
Clouds Scattered clouds 2,400 ft. (732 m)
Ceiling: Overcast 3,500 ft. (1,067 m)
Altimeter30.03 in.Hg (1017 mB)
PrecipitiationTrace
Relative humidity62 %
Density altitude-2,779 ft. (-847 m)
Remarks Automated weather observing station with precipitation discriminator
Visibility variable
Flight conditions Low Instrument Meteorological Conditions
Raw dataKORD 181801Z 28012G23KT 3/4SM R10L/P6000FT -SN BLSN SCT024 OVC035 M07/M13 A3003 RMK AO2 VIS 1/2 V 1 1/4 P0000 T10671128
An error has occurred. This application may no longer respond until reloaded. Reload 🗙